sensor_id;sensor_type;location;lat;lon;timestamp;P1;durP1;ratioP1;P2;durP2;ratioP2
33858;SDS011;20156;47.486;12.074;2022-08-21T00:01:42;2.45;;;2.25;;
33858;SDS011;20156;47.486;12.074;2022-08-21T00:04:08;2.75;;;2.38;;
33858;SDS011;20156;47.486;12.074;2022-08-21T00:06:34;3.08;;;2.78;;
33858;SDS011;20156;47.486;12.074;2022-08-21T00:09:01;4.10;;;2.92;;
33858;SDS011;20156;47.486;12.074;2022-08-21T00:11:27;3.80;;;2.95;;
33858;SDS011;20156;47.486;12.074;2022-08-21T00:13:53;2.90;;;2.50;;
33858;SDS011;20156;47.486;12.074;2022-08-21T00:16:19;2.75;;;2.28;;
33858;SDS011;20156;47.486;12.074;2022-08-21T00:18:45;2.80;;;2.60;;
33858;SDS011;20156;47.486;12.074;2022-08-21T00:21:11;4.25;;;2.90;;
33858;SDS011;20156;47.486;12.074;2022-08-21T00:23:37;3.40;;;3.10;;
33858;SDS011;20156;47.486;12.074;2022-08-21T00:26:03;2.85;;;2.65;;
33858;SDS011;20156;47.486;12.074;2022-08-21T00:28:29;3.15;;;2.85;;
33858;SDS011;20156;47.486;12.074;2022-08-21T00:30:55;2.78;;;2.58;;
33858;SDS011;20156;47.486;12.074;2022-08-21T00:33:21;3.50;;;3.13;;
33858;SDS011;20156;47.486;12.074;2022-08-21T00:35:48;3.55;;;3.17;;
33858;SDS011;20156;47.486;12.074;2022-08-21T00:38:13;3.65;;;3.35;;
33858;SDS011;20156;47.486;12.074;2022-08-21T00:40:44;3.78;;;3.15;;
33858;SDS011;20156;47.486;12.074;2022-08-21T00:43:14;4.15;;;3.17;;
33858;SDS011;20156;47.486;12.074;2022-08-21T00:45:41;3.53;;;3.22;;
33858;SDS011;20156;47.486;12.074;2022-08-21T00:48:07;4.00;;;3.60;;
33858;SDS011;20156;47.486;12.074;2022-08-21T00:50:35;4.65;;;3.78;;
33858;SDS011;20156;47.486;12.074;2022-08-21T00:53:04;5.70;;;4.20;;
33858;SDS011;20156;47.486;12.074;2022-08-21T00:55:31;4.18;;;3.78;;
33858;SDS011;20156;47.486;12.074;2022-08-21T00:57:59;7.68;;;4.60;;
33858;SDS011;20156;47.486;12.074;2022-08-21T01:00:28;4.47;;;4.07;;
33858;SDS011;20156;47.486;12.074;2022-08-21T01:02:57;3.55;;;3.25;;
33858;SDS011;20156;47.486;12.074;2022-08-21T01:05:25;4.05;;;3.75;;
33858;SDS011;20156;47.486;12.074;2022-08-21T01:07:53;3.47;;;3.17;;
33858;SDS011;20156;47.486;12.074;2022-08-21T01:10:21;4.32;;;3.20;;
33858;SDS011;20156;47.486;12.074;2022-08-21T01:12:48;3.08;;;2.88;;
33858;SDS011;20156;47.486;12.074;2022-08-21T01:15:16;3.70;;;3.40;;
33858;SDS011;20156;47.486;12.074;2022-08-21T01:17:43;3.25;;;2.95;;
33858;SDS011;20156;47.486;12.074;2022-08-21T01:20:09;3.00;;;2.80;;
33858;SDS011;20156;47.486;12.074;2022-08-21T01:22:36;4.25;;;3.50;;
33858;SDS011;20156;47.486;12.074;2022-08-21T01:25:06;2.90;;;2.67;;
33858;SDS011;20156;47.486;12.074;2022-08-21T01:27:33;3.10;;;2.80;;
33858;SDS011;20156;47.486;12.074;2022-08-21T01:30:13;3.15;;;2.90;;
33858;SDS011;20156;47.486;12.074;2022-08-21T01:32:43;6.18;;;2.97;;
33858;SDS011;20156;47.486;12.074;2022-08-21T01:35:08;4.05;;;3.17;;
33858;SDS011;20156;47.486;12.074;2022-08-21T01:37:36;3.55;;;3.25;;
33858;SDS011;20156;47.486;12.074;2022-08-21T01:40:02;4.72;;;3.13;;
33858;SDS011;20156;47.486;12.074;2022-08-21T01:42:29;4.05;;;3.17;;
33858;SDS011;20156;47.486;12.074;2022-08-21T01:44:54;3.20;;;2.92;;
33858;SDS011;20156;47.486;12.074;2022-08-21T01:47:20;3.92;;;2.88;;
33858;SDS011;20156;47.486;12.074;2022-08-21T01:49:45;5.80;;;3.15;;
33858;SDS011;20156;47.486;12.074;2022-08-21T01:52:11;3.90;;;2.83;;
33858;SDS011;20156;47.486;12.074;2022-08-21T01:54:37;3.10;;;2.80;;
33858;SDS011;20156;47.486;12.074;2022-08-21T01:57:04;3.10;;;2.55;;
33858;SDS011;20156;47.486;12.074;2022-08-21T01:59:30;2.67;;;2.47;;
33858;SDS011;20156;47.486;12.074;2022-08-21T02:01:56;3.00;;;2.70;;
33858;SDS011;20156;47.486;12.074;2022-08-21T02:04:21;2.88;;;2.60;;
33858;SDS011;20156;47.486;12.074;2022-08-21T02:06:47;2.80;;;2.60;;
33858;SDS011;20156;47.486;12.074;2022-08-21T02:09:13;3.53;;;2.95;;
33858;SDS011;20156;47.486;12.074;2022-08-21T02:11:40;4.30;;;2.97;;
33858;SDS011;20156;47.486;12.074;2022-08-21T02:14:10;4.72;;;2.70;;
33858;SDS011;20156;47.486;12.074;2022-08-21T02:16:38;2.85;;;2.40;;
33858;SDS011;20156;47.486;12.074;2022-08-21T02:19:03;2.60;;;2.40;;
33858;SDS011;20156;47.486;12.074;2022-08-21T02:21:30;3.58;;;2.55;;
33858;SDS011;20156;47.486;12.074;2022-08-21T02:23:56;2.35;;;2.15;;
33858;SDS011;20156;47.486;12.074;2022-08-21T02:26:21;2.65;;;2.45;;
33858;SDS011;20156;47.486;12.074;2022-08-21T02:28:47;2.67;;;2.47;;
33858;SDS011;20156;47.486;12.074;2022-08-21T02:31:13;3.38;;;2.58;;
33858;SDS011;20156;47.486;12.074;2022-08-21T02:33:38;4.82;;;2.97;;
33858;SDS011;20156;47.486;12.074;2022-08-21T02:36:04;2.70;;;2.50;;
33858;SDS011;20156;47.486;12.074;2022-08-21T02:38:31;4.18;;;2.78;;
33858;SDS011;20156;47.486;12.074;2022-08-21T02:41:02;4.10;;;2.67;;
33858;SDS011;20156;47.486;12.074;2022-08-21T02:43:29;2.50;;;2.30;;
33858;SDS011;20156;47.486;12.074;2022-08-21T02:45:55;3.33;;;2.67;;
33858;SDS011;20156;47.486;12.074;2022-08-21T02:48:23;3.00;;;2.75;;
33858;SDS011;20156;47.486;12.074;2022-08-21T02:50:55;2.85;;;2.30;;
33858;SDS011;20156;47.486;12.074;2022-08-21T02:53:24;4.45;;;2.53;;
33858;SDS011;20156;47.486;12.074;2022-08-21T02:55:50;2.83;;;2.53;;
33858;SDS011;20156;47.486;12.074;2022-08-21T02:58:17;4.97;;;2.90;;
33858;SDS011;20156;47.486;12.074;2022-08-21T03:00:45;2.67;;;2.47;;
33858;SDS011;20156;47.486;12.074;2022-08-21T03:03:11;2.90;;;2.60;;
33858;SDS011;20156;47.486;12.074;2022-08-21T03:05:39;3.45;;;2.65;;
33858;SDS011;20156;47.486;12.074;2022-08-21T03:08:06;2.38;;;2.17;;
33858;SDS011;20156;47.486;12.074;2022-08-21T03:10:40;4.05;;;2.42;;
33858;SDS011;20156;47.486;12.074;2022-08-21T03:13:09;2.42;;;2.30;;
33858;SDS011;20156;47.486;12.074;2022-08-21T03:15:36;2.63;;;2.42;;
33858;SDS011;20156;47.486;12.074;2022-08-21T03:18:02;2.78;;;2.47;;
33858;SDS011;20156;47.486;12.074;2022-08-21T03:20:30;2.58;;;2.38;;
33858;SDS011;20156;47.486;12.074;2022-08-21T03:22:57;3.50;;;2.60;;
33858;SDS011;20156;47.486;12.074;2022-08-21T03:25:23;4.93;;;2.72;;
33858;SDS011;20156;47.486;12.074;2022-08-21T03:27:50;2.33;;;2.22;;
33858;SDS011;20156;47.486;12.074;2022-08-21T03:30:16;2.63;;;2.42;;
33858;SDS011;20156;47.486;12.074;2022-08-21T03:32:43;2.70;;;2.50;;
33858;SDS011;20156;47.486;12.074;2022-08-21T03:35:09;2.28;;;2.08;;
33858;SDS011;20156;47.486;12.074;2022-08-21T03:37:34;3.30;;;2.50;;
33858;SDS011;20156;47.486;12.074;2022-08-21T03:40:00;4.32;;;2.70;;
33858;SDS011;20156;47.486;12.074;2022-08-21T03:42:27;2.63;;;2.42;;
33858;SDS011;20156;47.486;12.074;2022-08-21T03:44:52;3.78;;;2.72;;
33858;SDS011;20156;47.486;12.074;2022-08-21T03:47:17;2.65;;;2.45;;
33858;SDS011;20156;47.486;12.074;2022-08-21T03:49:43;4.03;;;2.30;;
33858;SDS011;20156;47.486;12.074;2022-08-21T03:52:08;2.88;;;2.60;;
33858;SDS011;20156;47.486;12.074;2022-08-21T03:54:34;2.90;;;2.60;;
33858;SDS011;20156;47.486;12.074;2022-08-21T03:56:59;3.22;;;2.90;;
33858;SDS011;20156;47.486;12.074;2022-08-21T03:59:25;4.10;;;3.22;;
33858;SDS011;20156;47.486;12.074;2022-08-21T04:01:54;4.00;;;3.22;;
33858;SDS011;20156;47.486;12.074;2022-08-21T04:04:22;3.15;;;2.85;;
33858;SDS011;20156;47.486;12.074;2022-08-21T04:06:48;3.38;;;3.00;;
33858;SDS011;20156;47.486;12.074;2022-08-21T04:09:14;3.08;;;2.78;;
33858;SDS011;20156;47.486;12.074;2022-08-21T04:11:40;4.07;;;2.92;;
33858;SDS011;20156;47.486;12.074;2022-08-21T04:14:06;4.05;;;3.00;;
33858;SDS011;20156;47.486;12.074;2022-08-21T04:16:31;2.78;;;2.58;;
33858;SDS011;20156;47.486;12.074;2022-08-21T04:18:57;3.15;;;2.85;;
33858;SDS011;20156;47.486;12.074;2022-08-21T04:21:22;4.45;;;3.00;;
33858;SDS011;20156;47.486;12.074;2022-08-21T04:23:48;2.90;;;2.70;;
33858;SDS011;20156;47.486;12.074;2022-08-21T04:26:14;3.22;;;2.95;;
33858;SDS011;20156;47.486;12.074;2022-08-21T04:28:40;2.95;;;2.63;;
33858;SDS011;20156;47.486;12.074;2022-08-21T04:31:06;2.97;;;2.72;;
33858;SDS011;20156;47.486;12.074;2022-08-21T04:33:33;3.08;;;2.88;;
33858;SDS011;20156;47.486;12.074;2022-08-21T04:35:59;2.97;;;2.67;;
33858;SDS011;20156;47.486;12.074;2022-08-21T04:38:24;2.60;;;2.40;;
33858;SDS011;20156;47.486;12.074;2022-08-21T04:40:51;2.97;;;2.78;;
33858;SDS011;20156;47.486;12.074;2022-08-21T04:43:17;2.50;;;2.30;;
33858;SDS011;20156;47.486;12.074;2022-08-21T04:45:44;2.60;;;2.40;;
33858;SDS011;20156;47.486;12.074;2022-08-21T04:48:13;3.30;;;2.35;;
33858;SDS011;20156;47.486;12.074;2022-08-21T04:50:41;5.43;;;2.33;;
33858;SDS011;20156;47.486;12.074;2022-08-21T04:53:11;4.20;;;3.80;;
33858;SDS011;20156;47.486;12.074;2022-08-21T04:55:42;4.97;;;3.25;;
33858;SDS011;20156;47.486;12.074;2022-08-21T04:58:11;3.50;;;3.00;;
33858;SDS011;20156;47.486;12.074;2022-08-21T05:00:40;3.08;;;2.88;;
33858;SDS011;20156;47.486;12.074;2022-08-21T05:03:06;5.82;;;3.10;;
33858;SDS011;20156;47.486;12.074;2022-08-21T05:05:34;6.97;;;4.53;;
33858;SDS011;20156;47.486;12.074;2022-08-21T05:08:01;3.58;;;3.28;;
33858;SDS011;20156;47.486;12.074;2022-08-21T05:10:27;3.75;;;3.45;;
33858;SDS011;20156;47.486;12.074;2022-08-21T05:12:53;3.28;;;2.97;;
33858;SDS011;20156;47.486;12.074;2022-08-21T05:15:19;3.40;;;3.00;;
33858;SDS011;20156;47.486;12.074;2022-08-21T05:17:45;3.05;;;2.85;;
33858;SDS011;20156;47.486;12.074;2022-08-21T05:20:11;2.90;;;2.63;;
33858;SDS011;20156;47.486;12.074;2022-08-21T05:22:38;2.80;;;2.60;;
33858;SDS011;20156;47.486;12.074;2022-08-21T05:25:05;2.72;;;2.53;;
33858;SDS011;20156;47.486;12.074;2022-08-21T05:27:32;4.50;;;3.25;;
33858;SDS011;20156;47.486;12.074;2022-08-21T05:29:58;3.30;;;3.00;;
33858;SDS011;20156;47.486;12.074;2022-08-21T05:32:23;4.50;;;2.75;;
33858;SDS011;20156;47.486;12.074;2022-08-21T05:34:49;4.53;;;2.95;;
33858;SDS011;20156;47.486;12.074;2022-08-21T05:37:15;3.80;;;3.35;;
33858;SDS011;20156;47.486;12.074;2022-08-21T05:39:40;3.25;;;3.00;;
33858;SDS011;20156;47.486;12.074;2022-08-21T05:42:07;5.82;;;4.03;;
33858;SDS011;20156;47.486;12.074;2022-08-21T05:44:32;3.85;;;3.30;;
33858;SDS011;20156;47.486;12.074;2022-08-21T05:47:04;5.72;;;3.33;;
33858;SDS011;20156;47.486;12.074;2022-08-21T05:49:31;3.75;;;3.45;;
33858;SDS011;20156;47.486;12.074;2022-08-21T05:51:57;4.00;;;3.70;;
33858;SDS011;20156;47.486;12.074;2022-08-21T05:54:23;4.60;;;3.20;;
33858;SDS011;20156;47.486;12.074;2022-08-21T05:56:48;3.15;;;2.92;;
33858;SDS011;20156;47.486;12.074;2022-08-21T05:59:14;4.22;;;3.92;;
33858;SDS011;20156;47.486;12.074;2022-08-21T06:01:39;4.85;;;4.45;;
33858;SDS011;20156;47.486;12.074;2022-08-21T06:04:05;3.97;;;3.65;;
33858;SDS011;20156;47.486;12.074;2022-08-21T06:06:32;5.90;;;5.40;;
33858;SDS011;20156;47.486;12.074;2022-08-21T06:08:58;4.57;;;4.15;;
33858;SDS011;20156;47.486;12.074;2022-08-21T06:11:23;5.30;;;4.82;;
33858;SDS011;20156;47.486;12.074;2022-08-21T06:13:49;4.72;;;4.32;;
33858;SDS011;20156;47.486;12.074;2022-08-21T06:16:15;4.82;;;4.43;;
33858;SDS011;20156;47.486;12.074;2022-08-21T06:18:43;4.18;;;3.85;;
33858;SDS011;20156;47.486;12.074;2022-08-21T06:21:09;4.22;;;3.92;;
33858;SDS011;20156;47.486;12.074;2022-08-21T06:23:36;4.00;;;3.70;;
33858;SDS011;20156;47.486;12.074;2022-08-21T06:26:02;3.90;;;3.60;;
33858;SDS011;20156;47.486;12.074;2022-08-21T06:28:30;3.72;;;3.42;;
33858;SDS011;20156;47.486;12.074;2022-08-21T06:30:56;3.30;;;3.00;;
33858;SDS011;20156;47.486;12.074;2022-08-21T06:33:22;3.83;;;3.30;;
33858;SDS011;20156;47.486;12.074;2022-08-21T06:35:48;4.20;;;3.80;;
33858;SDS011;20156;47.486;12.074;2022-08-21T06:38:14;4.10;;;3.67;;
33858;SDS011;20156;47.486;12.074;2022-08-21T06:40:39;4.40;;;4.00;;
33858;SDS011;20156;47.486;12.074;2022-08-21T06:43:09;5.63;;;4.00;;
33858;SDS011;20156;47.486;12.074;2022-08-21T06:45:37;3.55;;;3.25;;
33858;SDS011;20156;47.486;12.074;2022-08-21T06:48:03;3.90;;;3.60;;
33858;SDS011;20156;47.486;12.074;2022-08-21T06:50:28;3.92;;;3.42;;
33858;SDS011;20156;47.486;12.074;2022-08-21T06:52:58;3.25;;;3.00;;
33858;SDS011;20156;47.486;12.074;2022-08-21T06:55:31;3.65;;;3.35;;
33858;SDS011;20156;47.486;12.074;2022-08-21T06:57:57;3.63;;;3.20;;
33858;SDS011;20156;47.486;12.074;2022-08-21T07:00:23;3.17;;;2.88;;
33858;SDS011;20156;47.486;12.074;2022-08-21T07:02:48;4.00;;;3.55;;
33858;SDS011;20156;47.486;12.074;2022-08-21T07:05:14;4.38;;;2.92;;
33858;SDS011;20156;47.486;12.074;2022-08-21T07:07:40;3.25;;;2.95;;
33858;SDS011;20156;47.486;12.074;2022-08-21T07:10:05;4.95;;;2.97;;
33858;SDS011;20156;47.486;12.074;2022-08-21T07:12:31;3.10;;;2.90;;
33858;SDS011;20156;47.486;12.074;2022-08-21T07:14:56;3.20;;;2.95;;
33858;SDS011;20156;47.486;12.074;2022-08-21T07:17:23;3.53;;;3.22;;
33858;SDS011;20156;47.486;12.074;2022-08-21T07:19:48;3.25;;;3.05;;
33858;SDS011;20156;47.486;12.074;2022-08-21T07:22:16;3.33;;;2.97;;
33858;SDS011;20156;47.486;12.074;2022-08-21T07:24:45;3.65;;;2.97;;
33858;SDS011;20156;47.486;12.074;2022-08-21T07:27:11;3.03;;;2.80;;
33858;SDS011;20156;47.486;12.074;2022-08-21T07:29:36;2.78;;;2.58;;
33858;SDS011;20156;47.486;12.074;2022-08-21T07:32:02;4.93;;;2.75;;
33858;SDS011;20156;47.486;12.074;2022-08-21T07:34:28;2.70;;;2.50;;
33858;SDS011;20156;47.486;12.074;2022-08-21T07:36:53;3.00;;;2.80;;
33858;SDS011;20156;47.486;12.074;2022-08-21T07:39:18;2.55;;;2.35;;
33858;SDS011;20156;47.486;12.074;2022-08-21T07:41:44;2.83;;;2.55;;
33858;SDS011;20156;47.486;12.074;2022-08-21T07:44:09;3.28;;;3.00;;
33858;SDS011;20156;47.486;12.074;2022-08-21T07:46:35;2.72;;;2.53;;
33858;SDS011;20156;47.486;12.074;2022-08-21T07:49:00;2.83;;;2.55;;
33858;SDS011;20156;47.486;12.074;2022-08-21T07:51:26;2.40;;;2.20;;
33858;SDS011;20156;47.486;12.074;2022-08-21T07:53:54;4.53;;;2.30;;
33858;SDS011;20156;47.486;12.074;2022-08-21T07:56:21;3.50;;;2.50;;
33858;SDS011;20156;47.486;12.074;2022-08-21T07:58:47;2.42;;;2.30;;
33858;SDS011;20156;47.486;12.074;2022-08-21T08:01:13;2.90;;;2.67;;
33858;SDS011;20156;47.486;12.074;2022-08-21T08:03:39;2.38;;;2.17;;
33858;SDS011;20156;47.486;12.074;2022-08-21T08:06:05;2.95;;;2.75;;
33858;SDS011;20156;47.486;12.074;2022-08-21T08:08:33;3.58;;;2.33;;
33858;SDS011;20156;47.486;12.074;2022-08-21T08:10:59;2.40;;;2.20;;
33858;SDS011;20156;47.486;12.074;2022-08-21T08:13:25;2.50;;;2.30;;
33858;SDS011;20156;47.486;12.074;2022-08-21T08:15:51;2.50;;;2.30;;
33858;SDS011;20156;47.486;12.074;2022-08-21T08:18:16;2.28;;;2.13;;
33858;SDS011;20156;47.486;12.074;2022-08-21T08:20:42;2.95;;;2.50;;
33858;SDS011;20156;47.486;12.074;2022-08-21T08:23:11;2.40;;;2.15;;
33858;SDS011;20156;47.486;12.074;2022-08-21T08:25:38;2.40;;;2.20;;
33858;SDS011;20156;47.486;12.074;2022-08-21T08:28:04;2.25;;;2.10;;
33858;SDS011;20156;47.486;12.074;2022-08-21T08:30:30;2.55;;;2.20;;
33858;SDS011;20156;47.486;12.074;2022-08-21T08:32:56;2.60;;;2.40;;
33858;SDS011;20156;47.486;12.074;2022-08-21T08:35:22;2.17;;;1.98;;
33858;SDS011;20156;47.486;12.074;2022-08-21T08:37:48;2.03;;;1.92;;
33858;SDS011;20156;47.486;12.074;2022-08-21T08:40:14;2.10;;;2.00;;
33858;SDS011;20156;47.486;12.074;2022-08-21T08:42:47;2.13;;;1.92;;
33858;SDS011;20156;47.486;12.074;2022-08-21T08:45:16;3.22;;;1.90;;
33858;SDS011;20156;47.486;12.074;2022-08-21T08:47:47;2.42;;;2.20;;
33858;SDS011;20156;47.486;12.074;2022-08-21T08:50:18;2.58;;;2.38;;
33858;SDS011;20156;47.486;12.074;2022-08-21T08:52:51;3.00;;;1.98;;
33858;SDS011;20156;47.486;12.074;2022-08-21T08:55:26;3.08;;;2.10;;
33858;SDS011;20156;47.486;12.074;2022-08-21T08:58:00;2.10;;;2.00;;
33858;SDS011;20156;47.486;12.074;2022-08-21T09:00:27;2.55;;;1.95;;
33858;SDS011;20156;47.486;12.074;2022-08-21T09:02:57;2.78;;;2.08;;
33858;SDS011;20156;47.486;12.074;2022-08-21T09:05:26;1.92;;;1.83;;
33858;SDS011;20156;47.486;12.074;2022-08-21T09:13:43;2.50;;;2.20;;
33858;SDS011;20156;47.486;12.074;2022-08-21T09:16:33;1.90;;;1.80;;
33858;SDS011;20156;47.486;12.074;2022-08-21T09:19:27;2.15;;;2.05;;
33858;SDS011;20156;47.486;12.074;2022-08-21T09:22:01;1.80;;;1.70;;
33858;SDS011;20156;47.486;12.074;2022-08-21T09:27:08;2.00;;;1.90;;
33858;SDS011;20156;47.486;12.074;2022-08-21T09:29:37;2.03;;;1.90;;
33858;SDS011;20156;47.486;12.074;2022-08-21T09:32:09;1.92;;;1.83;;
33858;SDS011;20156;47.486;12.074;2022-08-21T09:34:39;1.90;;;1.80;;
33858;SDS011;20156;47.486;12.074;2022-08-21T09:37:05;2.55;;;1.88;;
33858;SDS011;20156;47.486;12.074;2022-08-21T09:39:42;1.85;;;1.75;;
33858;SDS011;20156;47.486;12.074;2022-08-21T09:42:09;2.00;;;1.60;;
33858;SDS011;20156;47.486;12.074;2022-08-21T09:44:36;2.53;;;1.92;;
33858;SDS011;20156;47.486;12.074;2022-08-21T09:47:09;2.45;;;1.90;;
33858;SDS011;20156;47.486;12.074;2022-08-21T09:49:40;3.20;;;2.00;;
33858;SDS011;20156;47.486;12.074;2022-08-21T09:52:20;3.53;;;2.30;;
33858;SDS011;20156;47.486;12.074;2022-08-21T09:54:49;3.40;;;2.58;;
33858;SDS011;20156;47.486;12.074;2022-08-21T09:57:27;2.72;;;2.53;;
33858;SDS011;20156;47.486;12.074;2022-08-21T10:00:10;3.53;;;2.78;;
33858;SDS011;20156;47.486;12.074;2022-08-21T10:02:45;4.05;;;2.97;;
33858;SDS011;20156;47.486;12.074;2022-08-21T10:05:20;1.85;;;1.75;;
33858;SDS011;20156;47.486;12.074;2022-08-21T10:07:48;2.10;;;1.90;;
33858;SDS011;20156;47.486;12.074;2022-08-21T10:10:18;1.70;;;1.60;;
33858;SDS011;20156;47.486;12.074;2022-08-21T10:18:25;2.88;;;1.83;;
33858;SDS011;20156;47.486;12.074;2022-08-21T10:20:54;1.48;;;1.10;;
33858;SDS011;20156;47.486;12.074;2022-08-21T10:26:32;1.60;;;1.50;;
33858;SDS011;20156;47.486;12.074;2022-08-21T10:29:53;1.42;;;1.33;;
33858;SDS011;20156;47.486;12.074;2022-08-21T10:37:40;1.35;;;1.25;;
33858;SDS011;20156;47.486;12.074;2022-08-21T10:56:32;2.47;;;1.50;;
33858;SDS011;20156;47.486;12.074;2022-08-21T11:02:15;1.80;;;1.58;;
33858;SDS011;20156;47.486;12.074;2022-08-21T11:07:28;2.22;;;1.80;;
33858;SDS011;20156;47.486;12.074;2022-08-21T11:09:58;2.35;;;1.80;;
33858;SDS011;20156;47.486;12.074;2022-08-21T11:12:37;1.50;;;1.40;;
33858;SDS011;20156;47.486;12.074;2022-08-21T11:15:23;1.60;;;1.50;;
33858;SDS011;20156;47.486;12.074;2022-08-21T11:17:57;1.83;;;1.70;;
33858;SDS011;20156;47.486;12.074;2022-08-21T11:20:29;1.95;;;1.52;;
33858;SDS011;20156;47.486;12.074;2022-08-21T11:26:13;1.50;;;1.40;;
33858;SDS011;20156;47.486;12.074;2022-08-21T11:31:39;1.42;;;1.33;;
33858;SDS011;20156;47.486;12.074;2022-08-21T11:37:23;2.03;;;1.67;;
33858;SDS011;20156;47.486;12.074;2022-08-21T11:40:14;1.77;;;1.40;;
33858;SDS011;20156;47.486;12.074;2022-08-21T11:43:12;2.47;;;1.33;;
33858;SDS011;20156;47.486;12.074;2022-08-21T11:50:37;2.08;;;1.88;;
33858;SDS011;20156;47.486;12.074;2022-08-21T11:53:09;3.50;;;2.00;;
33858;SDS011;20156;47.486;12.074;2022-08-21T11:55:53;2.25;;;1.75;;
33858;SDS011;20156;47.486;12.074;2022-08-21T11:58:31;1.80;;;1.70;;
33858;SDS011;20156;47.486;12.074;2022-08-21T12:01:09;2.13;;;1.58;;
33858;SDS011;20156;47.486;12.074;2022-08-21T12:04:02;1.60;;;1.50;;
33858;SDS011;20156;47.486;12.074;2022-08-21T12:06:39;1.83;;;1.73;;
33858;SDS011;20156;47.486;12.074;2022-08-21T12:09:10;2.15;;;1.50;;
33858;SDS011;20156;47.486;12.074;2022-08-21T12:12:02;2.15;;;2.00;;
33858;SDS011;20156;47.486;12.074;2022-08-21T12:14:36;1.52;;;1.42;;
33858;SDS011;20156;47.486;12.074;2022-08-21T12:17:05;1.60;;;1.50;;
33858;SDS011;20156;47.486;12.074;2022-08-21T12:19:33;3.50;;;1.80;;
33858;SDS011;20156;47.486;12.074;2022-08-21T12:22:09;1.73;;;1.63;;
33858;SDS011;20156;47.486;12.074;2022-08-21T12:24:41;1.80;;;1.70;;
33858;SDS011;20156;47.486;12.074;2022-08-21T12:30:03;1.77;;;1.67;;
33858;SDS011;20156;47.486;12.074;2022-08-21T12:35:14;1.65;;;1.27;;
33858;SDS011;20156;47.486;12.074;2022-08-21T12:40:21;2.17;;;1.98;;
33858;SDS011;20156;47.486;12.074;2022-08-21T12:42:51;3.47;;;1.85;;
33858;SDS011;20156;47.486;12.074;2022-08-21T12:45:23;1.80;;;1.55;;
33858;SDS011;20156;47.486;12.074;2022-08-21T12:47:56;1.48;;;1.35;;
33858;SDS011;20156;47.486;12.074;2022-08-21T12:50:44;1.70;;;1.60;;
33858;SDS011;20156;47.486;12.074;2022-08-21T12:53:26;1.95;;;1.85;;
33858;SDS011;20156;47.486;12.074;2022-08-21T12:56:10;1.83;;;1.73;;
33858;SDS011;20156;47.486;12.074;2022-08-21T12:58:43;2.05;;;1.85;;
33858;SDS011;20156;47.486;12.074;2022-08-21T13:01:17;2.92;;;1.70;;
33858;SDS011;20156;47.486;12.074;2022-08-21T13:03:49;1.65;;;1.55;;
33858;SDS011;20156;47.486;12.074;2022-08-21T13:06:16;1.95;;;1.83;;
33858;SDS011;20156;47.486;12.074;2022-08-21T13:08:45;1.95;;;1.65;;
33858;SDS011;20156;47.486;12.074;2022-08-21T13:11:13;2.00;;;1.75;;
33858;SDS011;20156;47.486;12.074;2022-08-21T13:13:41;1.88;;;1.77;;
33858;SDS011;20156;47.486;12.074;2022-08-21T13:16:08;1.58;;;1.48;;
33858;SDS011;20156;47.486;12.074;2022-08-21T13:18:35;1.90;;;1.80;;
33858;SDS011;20156;47.486;12.074;2022-08-21T13:21:16;2.13;;;1.70;;
33858;SDS011;20156;47.486;12.074;2022-08-21T13:23:41;2.00;;;1.80;;
33858;SDS011;20156;47.486;12.074;2022-08-21T13:28:40;2.03;;;1.70;;
33858;SDS011;20156;47.486;12.074;2022-08-21T13:31:06;1.80;;;1.70;;
33858;SDS011;20156;47.486;12.074;2022-08-21T13:33:35;2.53;;;1.80;;
33858;SDS011;20156;47.486;12.074;2022-08-21T13:36:04;3.03;;;1.92;;
33858;SDS011;20156;47.486;12.074;2022-08-21T13:38:35;2.03;;;1.50;;
33858;SDS011;20156;47.486;12.074;2022-08-21T13:43:48;2.17;;;1.90;;
33858;SDS011;20156;47.486;12.074;2022-08-21T13:46:24;2.53;;;1.85;;
33858;SDS011;20156;47.486;12.074;2022-08-21T13:48:52;1.75;;;1.65;;
33858;SDS011;20156;47.486;12.074;2022-08-21T13:51:19;1.83;;;1.70;;
33858;SDS011;20156;47.486;12.074;2022-08-21T13:53:48;3.35;;;1.50;;
33858;SDS011;20156;47.486;12.074;2022-08-21T13:58:55;1.52;;;1.35;;
33858;SDS011;20156;47.486;12.074;2022-08-21T14:01:23;1.40;;;1.30;;
33858;SDS011;20156;47.486;12.074;2022-08-21T14:03:54;2.60;;;1.50;;
33858;SDS011;20156;47.486;12.074;2022-08-21T14:06:25;1.60;;;1.50;;
33858;SDS011;20156;47.486;12.074;2022-08-21T14:09:07;1.92;;;1.83;;
33858;SDS011;20156;47.486;12.074;2022-08-21T14:11:35;1.85;;;1.63;;
33858;SDS011;20156;47.486;12.074;2022-08-21T14:14:03;1.70;;;1.60;;
33858;SDS011;20156;47.486;12.074;2022-08-21T14:16:44;1.80;;;1.70;;
33858;SDS011;20156;47.486;12.074;2022-08-21T14:19:19;1.70;;;1.60;;
33858;SDS011;20156;47.486;12.074;2022-08-21T14:21:47;3.10;;;2.20;;
33858;SDS011;20156;47.486;12.074;2022-08-21T14:24:14;1.73;;;1.63;;
33858;SDS011;20156;47.486;12.074;2022-08-21T14:26:48;2.83;;;1.80;;
33858;SDS011;20156;47.486;12.074;2022-08-21T14:29:17;3.38;;;1.90;;
33858;SDS011;20156;47.486;12.074;2022-08-21T14:31:49;2.00;;;1.83;;
33858;SDS011;20156;47.486;12.074;2022-08-21T14:34:20;2.00;;;1.80;;
33858;SDS011;20156;47.486;12.074;2022-08-21T14:36:47;2.47;;;1.92;;
33858;SDS011;20156;47.486;12.074;2022-08-21T14:39:14;2.70;;;2.03;;
33858;SDS011;20156;47.486;12.074;2022-08-21T14:41:39;1.90;;;1.80;;
33858;SDS011;20156;47.486;12.074;2022-08-21T14:44:07;2.25;;;1.70;;
33858;SDS011;20156;47.486;12.074;2022-08-21T14:46:33;1.83;;;1.60;;
33858;SDS011;20156;47.486;12.074;2022-08-21T14:49:00;3.30;;;1.88;;
33858;SDS011;20156;47.486;12.074;2022-08-21T14:51:26;2.03;;;1.90;;
33858;SDS011;20156;47.486;12.074;2022-08-21T14:53:51;2.15;;;1.90;;
33858;SDS011;20156;47.486;12.074;2022-08-21T14:56:17;1.92;;;1.73;;
33858;SDS011;20156;47.486;12.074;2022-08-21T14:58:44;2.10;;;1.95;;
33858;SDS011;20156;47.486;12.074;2022-08-21T15:01:13;1.80;;;1.70;;
33858;SDS011;20156;47.486;12.074;2022-08-21T15:03:40;2.30;;;2.10;;
33858;SDS011;20156;47.486;12.074;2022-08-21T15:06:06;1.90;;;1.70;;
33858;SDS011;20156;47.486;12.074;2022-08-21T15:08:32;1.92;;;1.80;;
33858;SDS011;20156;47.486;12.074;2022-08-21T15:10:58;3.40;;;2.20;;
33858;SDS011;20156;47.486;12.074;2022-08-21T15:13:25;2.67;;;2.03;;
33858;SDS011;20156;47.486;12.074;2022-08-21T15:15:51;3.05;;;1.85;;
33858;SDS011;20156;47.486;12.074;2022-08-21T15:18:21;3.95;;;2.25;;
33858;SDS011;20156;47.486;12.074;2022-08-21T15:20:49;2.50;;;2.00;;
33858;SDS011;20156;47.486;12.074;2022-08-21T15:23:14;2.35;;;2.15;;
33858;SDS011;20156;47.486;12.074;2022-08-21T15:25:41;2.42;;;1.80;;
33858;SDS011;20156;47.486;12.074;2022-08-21T15:28:09;2.78;;;2.30;;
33858;SDS011;20156;47.486;12.074;2022-08-21T15:30:36;2.25;;;2.05;;
33858;SDS011;20156;47.486;12.074;2022-08-21T15:33:03;3.00;;;2.30;;
33858;SDS011;20156;47.486;12.074;2022-08-21T15:35:29;2.90;;;2.15;;
33858;SDS011;20156;47.486;12.074;2022-08-21T15:37:55;2.90;;;1.95;;
33858;SDS011;20156;47.486;12.074;2022-08-21T15:40:20;2.78;;;2.40;;
33858;SDS011;20156;47.486;12.074;2022-08-21T15:42:46;2.33;;;2.13;;
33858;SDS011;20156;47.486;12.074;2022-08-21T15:45:11;4.43;;;2.53;;
33858;SDS011;20156;47.486;12.074;2022-08-21T15:47:38;2.25;;;1.75;;
33858;SDS011;20156;47.486;12.074;2022-08-21T15:50:07;2.35;;;2.10;;
33858;SDS011;20156;47.486;12.074;2022-08-21T15:52:34;3.92;;;2.17;;
33858;SDS011;20156;47.486;12.074;2022-08-21T15:55:00;2.47;;;2.28;;
33858;SDS011;20156;47.486;12.074;2022-08-21T15:57:25;2.00;;;1.90;;